Time;durP1;ratioP1;P1;durP2;ratioP2;P2;SDS_P1;SDS_P2;PMS_P1;PMS_P2;Temp;Humidity;BMP_temperature;BMP_pressure;BME280_temperature;BME280_humidity;BME280_pressure;Samples;Min_cycle;Max_cycle;Signal;HPM_P1;HPM_P2
2022/06/06 00:01:17;;;;;;;;;;;21.80;70.90;;;;;;5013586;28;19909;-78
2022/06/06 00:03:43;;;;;;;;;;;21.80;70.60;;;;;;5030559;28;19919;-78
2022/06/06 00:06:10;;;;;;;;;;;21.80;70.60;;;;;;5030422;28;20011;-78
2022/06/06 00:08:36;;;;;;;;;;;21.90;70.70;;;;;;5034483;28;19910;-78
2022/06/06 00:11:04;;;;;;;;;;;21.80;70.60;;;;;;5035194;28;19992;-78
2022/06/06 00:13:30;;;;;;;;;;;21.90;70.50;;;;;;5016628;28;19956;-78
2022/06/06 00:15:55;;;;;;;;;;;21.80;70.90;;;;;;5034224;28;19917;-77
2022/06/06 00:18:21;;;;;;;;;;;21.90;71.50;;;;;;5016486;28;20417;-78
2022/06/06 00:20:47;;;;;;;;;;;21.90;71.60;;;;;;5034140;28;19910;-78
2022/06/06 00:23:13;;;;;;;;;;;22.00;71.70;;;;;;5034157;28;19920;-77
2022/06/06 00:25:38;;;;;;;;;;;22.00;71.80;;;;;;5034130;28;19909;-77
2022/06/06 00:28:04;;;;;;;;;;;21.90;71.70;;;;;;5034075;28;20003;-78
2022/06/06 00:30:29;;;;;;;;;;;22.00;71.80;;;;;;5034277;28;19909;-79
2022/06/06 00:35:39;;;;;;;;;;;22.00;60.00;;;;;;5034074;28;19916;-78
2022/06/06 00:38:05;;;;;;;;;;;22.00;60.10;;;;;;5034285;28;19913;-78
2022/06/06 00:40:30;;;;;;;;;;;21.90;59.70;;;;;;5033452;28;19957;-78
2022/06/06 00:42:56;;;;;;;;;;;21.80;59.50;;;;;;5016706;28;19948;-77
2022/06/06 00:45:27;;;;;;;;;;;21.70;59.20;;;;;;5034232;28;19913;-78
2022/06/06 00:47:52;;;;;;;;;;;21.70;59.50;;;;;;5033981;28;20353;-78
2022/06/06 00:50:25;;;;;;;;;;;21.70;59.40;;;;;;5033232;28;19910;-78
2022/06/06 00:52:51;;;;;;;;;;;21.60;59.20;;;;;;5033832;28;19913;-78
2022/06/06 00:55:19;;;;;;;;;;;21.60;59.20;;;;;;5033519;28;19920;-78
2022/06/06 00:57:56;;;;;;;;;;;21.60;59.20;;;;;;5033449;28;20003;-78
2022/06/06 01:00:22;;;;;;;;;;;21.50;59.20;;;;;;5033089;28;19916;-78
2022/06/06 01:02:52;;;;;;;;;;;21.50;59.20;;;;;;5033317;28;20301;-78
2022/06/06 01:05:18;;;;;;;;;;;21.50;59.20;;;;;;5033138;28;19925;-78
2022/06/06 01:07:44;;;;;;;;;;;21.40;59.10;;;;;;5033529;28;19917;-78
2022/06/06 01:10:09;;;;;;;;;;;21.40;59.10;;;;;;5033133;28;19909;-78
2022/06/06 01:12:35;;;;;;;;;;;21.40;59.10;;;;;;5033156;28;19909;-78
2022/06/06 01:15:05;;;;;;;;;;;21.40;59.20;;;;;;5033117;28;19940;-78
2022/06/06 01:17:49;;;;;;;;;;;21.30;59.10;;;;;;5015291;28;19913;-78
2022/06/06 01:20:15;;;;;;;;;;;21.30;59.10;;;;;;5031834;28;20374;-78
2022/06/06 01:22:49;;;;;;;;;;;21.30;59.10;;;;;;5015093;28;20000;-78
2022/06/06 01:25:31;;;;;;;;;;;21.30;59.10;;;;;;5032551;28;19913;-78
2022/06/06 01:28:05;;;;;;;;;;;21.20;59.10;;;;;;5032820;28;20030;-78
2022/06/06 01:30:37;;;;;;;;;;;21.20;59.20;;;;;;5032321;28;19920;-78
2022/06/06 01:33:07;;;;;;;;;;;21.20;59.20;;;;;;5032656;28;20014;-78
2022/06/06 01:35:37;;;;;;;;;;;21.20;59.20;;;;;;5032497;28;19916;-78
2022/06/06 01:38:03;;;;;;;;;;;21.10;59.30;;;;;;5032513;28;19916;-78
2022/06/06 01:40:35;;;;;;;;;;;21.10;60.00;;;;;;5033162;28;19909;-78
2022/06/06 01:43:04;;;;;;;;;;;21.10;59.50;;;;;;5033249;28;19913;-78
2022/06/06 01:45:41;;;;;;;;;;;21.10;59.60;;;;;;5032881;28;20012;-78
2022/06/06 01:48:09;;;;;;;;;;;21.10;59.70;;;;;;5033238;28;19913;-78
2022/06/06 01:50:38;;;;;;;;;;;21.10;59.70;;;;;;5032088;28;19913;-77
2022/06/06 01:53:05;;;;;;;;;;;21.00;59.70;;;;;;5032262;28;19937;-77
2022/06/06 01:55:31;;;;;;;;;;;21.10;59.50;;;;;;5031927;28;19916;-77
2022/06/06 01:58:01;;;;;;;;;;;21.00;59.50;;;;;;5032060;28;19932;-77
2022/06/06 02:00:27;;;;;;;;;;;21.10;59.60;;;;;;5031570;28;20292;-77
2022/06/06 02:02:53;;;;;;;;;;;21.00;59.40;;;;;;5031975;28;20455;-77
2022/06/06 02:05:18;;;;;;;;;;;21.00;59.70;;;;;;5031558;28;19925;-77
2022/06/06 02:07:44;;;;;;;;;;;21.00;59.60;;;;;;5032024;28;19920;-77
2022/06/06 02:10:11;;;;;;;;;;;21.00;59.60;;;;;;5031439;28;20397;-77
2022/06/06 02:12:37;;;;;;;;;;;21.00;59.60;;;;;;5031652;28;20284;-77
2022/06/06 02:15:03;;;;;;;;;;;20.90;59.70;;;;;;5031584;28;19910;-78
2022/06/06 02:17:28;;;;;;;;;;;20.90;59.50;;;;;;5031676;28;19909;-77
2022/06/06 02:19:54;;;;;;;;;;;20.90;59.50;;;;;;5031393;28;19970;-78
2022/06/06 02:22:19;;;;;;;;;;;20.90;59.60;;;;;;5031682;28;19916;-78
2022/06/06 02:24:44;;;;;;;;;;;20.90;59.60;;;;;;5031396;28;19971;-77
2022/06/06 02:27:10;;;;;;;;;;;20.90;59.60;;;;;;5031626;28;20270;-78
2022/06/06 02:29:35;;;;;;;;;;;20.90;59.60;;;;;;5031152;28;20047;-77
2022/06/06 02:32:01;;;;;;;;;;;20.90;59.70;;;;;;5031627;28;19909;-77
2022/06/06 02:34:26;;;;;;;;;;;20.80;59.50;;;;;;5031362;28;19991;-78
2022/06/06 02:36:52;;;;;;;;;;;20.80;59.60;;;;;;5031439;28;19909;-79
2022/06/06 02:39:17;;;;;;;;;;;20.80;59.60;;;;;;5031317;28;19916;-78
2022/06/06 02:41:44;;;;;;;;;;;20.80;59.70;;;;;;5031355;28;19909;-78
2022/06/06 02:44:09;;;;;;;;;;;20.80;59.50;;;;;;5031061;28;19956;-78
2022/06/06 02:46:35;;;;;;;;;;;20.80;59.70;;;;;;5031326;28;19956;-77
2022/06/06 02:49:00;;;;;;;;;;;20.80;59.60;;;;;;5030910;28;19909;-77
2022/06/06 02:51:26;;;;;;;;;;;20.70;59.60;;;;;;5031356;28;20090;-77
2022/06/06 02:53:51;;;;;;;;;;;20.70;59.50;;;;;;5031533;28;20428;-77
2022/06/06 02:56:17;;;;;;;;;;;20.70;59.60;;;;;;5031609;28;19913;-78
2022/06/06 02:58:42;;;;;;;;;;;20.70;59.70;;;;;;5031202;28;20385;-78
2022/06/06 03:01:09;;;;;;;;;;;20.70;59.70;;;;;;5031028;28;20016;-78
2022/06/06 03:03:36;;;;;;;;;;;20.70;59.80;;;;;;5013208;28;19921;-78
2022/06/06 03:06:04;;;;;;;;;;;20.70;59.80;;;;;;5031033;28;19924;-78
2022/06/06 03:08:46;;;;;;;;;;;20.60;59.60;;;;;;5030866;28;20375;-78
2022/06/06 03:11:30;;;;;;;;;;;20.60;59.70;;;;;;5030777;28;20289;-77
2022/06/06 03:14:11;;;;;;;;;;;20.60;59.70;;;;;;5030868;28;19995;-77
2022/06/06 03:22:26;;;;;;;;;;;20.60;59.80;;;;;;5030997;28;19962;-77
2022/06/06 03:24:51;;;;;;;;;;;20.60;60.00;;;;;;5030699;28;19924;-77
2022/06/06 03:27:20;;;;;;;;;;;20.50;60.10;;;;;;5030795;28;19913;-77
2022/06/06 03:30:07;;;;;;;;;;;20.60;60.10;;;;;;5030618;28;19966;-77
2022/06/06 03:32:35;;;;;;;;;;;20.50;60.00;;;;;;5030905;28;19909;-77
2022/06/06 03:35:19;;;;;;;;;;;20.50;59.90;;;;;;5030702;28;20361;-77
2022/06/06 03:37:45;;;;;;;;;;;20.50;59.70;;;;;;5030800;28;19943;-77
2022/06/06 03:40:14;;;;;;;;;;;20.50;59.70;;;;;;5030465;28;19909;-77
2022/06/06 03:42:48;;;;;;;;;;;20.50;59.70;;;;;;5032649;28;20393;-77
2022/06/06 03:45:24;;;;;;;;;;;20.50;59.70;;;;;;5034459;28;19987;-78
2022/06/06 03:47:50;;;;;;;;;;;20.50;59.60;;;;;;5016871;28;19913;-77
2022/06/06 03:50:39;;;;;;;;;;;20.50;59.70;;;;;;5016406;28;19932;-78
2022/06/06 03:53:07;;;;;;;;;;;20.60;59.60;;;;;;5034096;28;19918;-78
2022/06/06 03:55:45;;;;;;;;;;;20.50;59.60;;;;;;5034278;28;19909;-78
2022/06/06 03:58:12;;;;;;;;;;;20.50;59.60;;;;;;5034110;28;19917;-78
2022/06/06 04:00:39;;;;;;;;;;;20.50;59.50;;;;;;5033937;28;19935;-77
2022/06/06 04:03:05;;;;;;;;;;;20.50;59.60;;;;;;5034182;28;19944;-78
2022/06/06 04:05:34;;;;;;;;;;;20.50;59.60;;;;;;5033919;28;19921;-78
2022/06/06 04:07:59;;;;;;;;;;;20.60;59.80;;;;;;5034255;28;19974;-77
2022/06/06 04:10:29;;;;;;;;;;;20.60;59.70;;;;;;5033757;28;19909;-77
2022/06/06 04:13:13;;;;;;;;;;;20.60;59.80;;;;;;5034099;28;20279;-77
2022/06/06 04:15:39;;;;;;;;;;;20.50;59.60;;;;;;5033948;28;19963;-77
2022/06/06 04:18:26;;;;;;;;;;;20.50;59.60;;;;;;5034156;28;19913;-77
2022/06/06 04:21:06;;;;;;;;;;;20.60;59.70;;;;;;5033855;28;19917;-77
2022/06/06 04:23:51;;;;;;;;;;;20.60;59.80;;;;;;5016062;28;20402;-77
2022/06/06 04:26:16;;;;;;;;;;;20.60;59.80;;;;;;5033716;28;20004;-77
2022/06/06 04:28:52;;;;;;;;;;;20.60;59.70;;;;;;5033142;28;19948;-77
2022/06/06 04:31:27;;;;;;;;;;;20.60;59.60;;;;;;5033685;28;19905;-77
2022/06/06 04:34:07;;;;;;;;;;;20.60;59.60;;;;;;5033732;28;20400;-77
2022/06/06 04:36:37;;;;;;;;;;;20.60;59.60;;;;;;5033754;28;19913;-78
2022/06/06 04:39:11;;;;;;;;;;;20.70;59.70;;;;;;5032929;28;20327;-78
2022/06/06 04:41:39;;;;;;;;;;;20.70;59.60;;;;;;5033516;28;19913;-78
2022/06/06 04:44:12;;;;;;;;;;;20.70;59.80;;;;;;5033364;28;19921;-78
2022/06/06 04:46:40;;;;;;;;;;;20.80;59.80;;;;;;5033440;28;19980;-78
2022/06/06 04:49:07;;;;;;;;;;;20.90;59.70;;;;;;5014909;28;19916;-78
2022/06/06 04:51:33;;;;;;;;;;;20.90;59.50;;;;;;5033430;28;19956;-78
2022/06/06 04:54:00;;;;;;;;;;;21.00;59.50;;;;;;5032381;28;19947;-78
2022/06/06 04:56:26;;;;;;;;;;;21.10;59.50;;;;;;5033265;28;19913;-78
2022/06/06 04:58:53;;;;;;;;;;;21.00;59.40;;;;;;5032873;28;20007;-78
2022/06/06 05:01:19;;;;;;;;;;;21.10;59.50;;;;;;5033173;28;19909;-78
2022/06/06 05:03:44;;;;;;;;;;;21.10;59.30;;;;;;5032985;28;19953;-77
2022/06/06 05:06:10;;;;;;;;;;;21.20;59.30;;;;;;5033034;28;19992;-77
2022/06/06 05:08:35;;;;;;;;;;;21.20;59.00;;;;;;5014674;28;20357;-77
2022/06/06 05:11:01;;;;;;;;;;;21.30;59.00;;;;;;5032934;28;19909;-77
2022/06/06 05:13:39;;;;;;;;;;;21.30;59.00;;;;;;5032877;28;20287;-77
2022/06/06 05:16:16;;;;;;;;;;;21.30;59.20;;;;;;5032839;28;20285;-77
2022/06/06 05:18:51;;;;;;;;;;;21.40;59.20;;;;;;5032192;28;20021;-77
2022/06/06 05:21:16;;;;;;;;;;;21.40;58.70;;;;;;5032687;28;20361;-77
2022/06/06 05:23:51;;;;;;;;;;;21.50;58.80;;;;;;5032793;28;19928;-77
2022/06/06 05:26:26;;;;;;;;;;;21.50;58.80;;;;;;5014759;28;19920;-77
2022/06/06 05:29:19;;;;;;;;;;;21.60;58.80;;;;;;5014193;28;19943;-77
2022/06/06 05:31:54;;;;;;;;;;;21.80;58.50;;;;;;5033082;28;20335;-77
2022/06/06 05:34:23;;;;;;;;;;;21.90;58.50;;;;;;5032445;28;19940;-77
2022/06/06 05:36:48;;;;;;;;;;;22.00;58.10;;;;;;5032641;28;20003;-78
2022/06/06 05:39:28;;;;;;;;;;;22.20;58.10;;;;;;5031656;28;20345;-78
2022/06/06 05:42:12;;;;;;;;;;;22.30;57.80;;;;;;5039507;28;20303;-77
2022/06/06 05:44:49;;;;;;;;;;;22.40;57.90;;;;;;5049826;28;19919;-77
2022/06/06 05:47:21;;;;;;;;;;;22.50;57.70;;;;;;5043131;28;19963;-77
2022/06/06 05:50:02;;;;;;;;;;;22.60;57.80;;;;;;5048506;28;19912;-77
2022/06/06 05:52:40;;;;;;;;;;;22.60;57.60;;;;;;5030981;28;19961;-77
2022/06/06 05:55:09;;;;;;;;;;;22.30;57.70;;;;;;5031856;28;19915;-77
2022/06/06 05:57:51;;;;;;;;;;;22.20;58.30;;;;;;5043226;28;20134;-77
2022/06/06 06:00:32;;;;;;;;;;;22.30;58.50;;;;;;5041223;28;20039;-77
2022/06/06 06:03:12;;;;;;;;;;;22.30;58.00;;;;;;5031641;28;19913;-77
2022/06/06 06:05:55;;;;;;;;;;;22.50;57.70;;;;;;5042452;28;19917;-77
2022/06/06 06:08:38;;;;;;;;;;;22.90;57.30;;;;;;5035819;28;19913;-77
2022/06/06 06:11:09;;;;;;;;;;;23.30;56.40;;;;;;5031776;28;19932;-77
2022/06/06 06:13:35;;;;;;;;;;;24.00;55.60;;;;;;5031709;28;20283;-78
2022/06/06 06:16:02;;;;;;;;;;;24.70;54.10;;;;;;5039387;28;20436;-76
2022/06/06 06:18:34;;;;;;;;;;;25.00;53.00;;;;;;5047121;28;19935;-76
2022/06/06 06:21:35;;;;;;;;;;;24.70;53.70;;;;;;5039921;28;19917;-76
2022/06/06 06:24:07;;;;;;;;;;;24.30;54.10;;;;;;4951324;29;19955;-76
2022/06/06 06:26:34;;;;;;;;;;;24.20;54.70;;;;;;5037690;28;19912;-76
2022/06/06 06:29:02;;;;;;;;;;;23.90;55.00;;;;;;5051144;28;20011;-76
2022/06/06 06:31:38;;;;;;;;;;;23.80;55.40;;;;;;5051789;28;19913;-76
2022/06/06 06:34:06;;;;;;;;;;;23.80;55.30;;;;;;5051596;28;19974;-76
2022/06/06 06:36:46;;;;;;;;;;;24.10;55.60;;;;;;5049511;28;20389;-77
2022/06/06 06:39:21;;;;;;;;;;;24.10;55.10;;;;;;5024253;28;19913;-77
2022/06/06 06:42:07;;;;;;;;;;;24.10;54.90;;;;;;5039092;28;19913;-76
2022/06/06 06:44:39;;;;;;;;;;;23.90;55.40;;;;;;5010038;28;19917;-77
2022/06/06 06:47:14;;;;;;;;;;;23.80;55.70;;;;;;5051535;28;19909;-77
2022/06/06 06:50:12;;;;;;;;;;;23.90;55.70;;;;;;5050946;28;19909;-77
2022/06/06 06:52:47;;;;;;;;;;;23.90;55.40;;;;;;5028157;28;19916;-78
2022/06/06 06:55:25;;;;;;;;;;;23.60;55.70;;;;;;5050950;28;20257;-77
2022/06/06 06:57:57;;;;;;;;;;;23.80;55.90;;;;;;5028095;28;19917;-78
2022/06/06 07:00:23;;;;;;;;;;;24.20;55.00;;;;;;5051255;28;19917;-79
2022/06/06 07:08:33;;;;;;;;;;;24.80;53.80;;;;;;5030156;28;20428;-79
2022/06/06 07:11:05;;;;;;;;;;;24.80;53.50;;;;;;5050287;28;19909;-79
2022/06/06 07:13:49;;;;;;;;;;;25.00;53.10;;;;;;5034451;28;20018;-79
2022/06/06 07:16:26;;;;;;;;;;;25.00;52.80;;;;;;5048815;28;19932;-78
2022/06/06 07:19:01;;;;;;;;;;;25.10;52.80;;;;;;5044408;28;20421;-79
2022/06/06 07:21:27;;;;;;;;;;;25.10;52.70;;;;;;5048811;28;19996;-79
2022/06/06 07:23:53;;;;;;;;;;;25.40;52.30;;;;;;5061916;28;19924;-79
2022/06/06 07:26:18;;;;;;;;;;;25.60;51.80;;;;;;5064096;28;19980;-79
2022/06/06 07:28:44;;;;;;;;;;;26.00;51.20;;;;;;5051922;28;19954;-79
2022/06/06 07:31:10;;;;;;;;;;;;;;;;;;5024388;28;19999;-79
2022/06/06 07:33:43;;;;;;;;;;;26.80;48.90;;;;;;5026247;28;19990;-79
2022/06/06 07:36:12;;;;;;;;;;;27.00;48.70;;;;;;5044195;28;19989;-79
2022/06/06 07:38:56;;;;;;;;;;;27.10;48.90;;;;;;5024632;28;20309;-80
2022/06/06 07:41:28;;;;;;;;;;;27.60;47.70;;;;;;5051601;28;19912;-79
2022/06/06 07:43:53;;;;;;;;;;;27.60;47.60;;;;;;5047324;28;19921;-79
2022/06/06 07:46:25;;;;;;;;;;;27.20;47.60;;;;;;5042837;28;19923;-79
2022/06/06 07:48:51;;;;;;;;;;;27.30;48.00;;;;;;5033844;28;19912;-79
2022/06/06 07:51:24;;;;;;;;;;;26.70;48.80;;;;;;5041212;28;20432;-79
2022/06/06 07:53:49;;;;;;;;;;;26.00;49.80;;;;;;5029322;28;19921;-79
2022/06/06 07:56:21;;;;;;;;;;;26.00;50.70;;;;;;5049522;28;19920;-80
2022/06/06 07:58:58;;;;;;;;;;;26.20;50.50;;;;;;5027171;28;19996;-80
2022/06/06 08:01:24;;;;;;;;;;;26.00;50.60;;;;;;5050186;28;20272;-79
2022/06/06 08:03:50;;;;;;;;;;;26.00;50.50;;;;;;5047851;28;19913;-79
2022/06/06 08:06:19;;;;;;;;;;;25.80;50.90;;;;;;5037827;28;19928;-79
2022/06/06 08:08:44;;;;;;;;;;;26.00;50.50;;;;;;5024949;28;19920;-80
2022/06/06 08:11:18;;;;;;;;;;;26.30;49.80;;;;;;5046067;28;19913;-79
2022/06/06 08:13:49;;;;;;;;;;;26.30;49.70;;;;;;5048742;28;19959;-78
2022/06/06 08:16:15;;;;;;;;;;;26.20;50.20;;;;;;5033105;28;19946;-79
2022/06/06 08:18:40;;;;;;;;;;;26.00;50.30;;;;;;5041261;28;19909;-79
2022/06/06 08:21:16;;;;;;;;;;;26.00;50.60;;;;;;5050760;28;19917;-79
2022/06/06 08:23:42;;;;;;;;;;;26.00;50.20;;;;;;5048835;28;19913;-77
2022/06/06 08:26:08;;;;;;;;;;;25.90;50.10;;;;;;5048599;28;20373;-78
2022/06/06 08:28:37;;;;;;;;;;;26.20;49.70;;;;;;5012799;28;20185;-79
2022/06/06 08:31:03;;;;;;;;;;;26.50;49.20;;;;;;5031414;28;20409;-80
2022/06/06 08:33:28;;;;;;;;;;;26.60;48.60;;;;;;5031695;28;19913;-81
2022/06/06 08:36:10;;;;;;;;;;;27.00;47.70;;;;;;5032210;28;19913;-79
2022/06/06 08:38:50;;;;;;;;;;;27.10;46.70;;;;;;5031543;28;20000;-79
2022/06/06 08:41:18;;;;;;;;;;;27.20;47.10;;;;;;5042800;28;19920;-79
2022/06/06 08:43:59;;;;;;;;;;;27.20;46.90;;;;;;5034139;28;19913;-78
2022/06/06 08:46:50;;;;;;;;;;;27.20;47.10;;;;;;5028960;28;19913;-77
2022/06/06 08:52:09;;;;;;;;;;;26.90;47.40;;;;;;5044320;28;19923;-78
2022/06/06 08:54:53;;;;;;;;;;;26.80;47.40;;;;;;5025240;28;19913;-79
2022/06/06 08:57:21;;;;;;;;;;;26.70;47.70;;;;;;5046931;28;20383;-79
2022/06/06 09:00:02;;;;;;;;;;;26.80;47.60;;;;;;5036987;28;19912;-78
2022/06/06 09:02:47;;;;;;;;;;;26.90;46.90;;;;;;5045407;28;19924;-78
2022/06/06 09:05:15;;;;;;;;;;;27.10;46.70;;;;;;5032644;28;20004;-78
2022/06/06 09:07:53;;;;;;;;;;;27.10;46.70;;;;;;5034174;28;19909;-79
2022/06/06 09:10:38;;;;;;;;;;;27.20;46.40;;;;;;5030759;28;20396;-79
2022/06/06 09:13:06;;;;;;;;;;;27.20;46.20;;;;;;5049019;28;19913;-79
2022/06/06 09:15:47;;;;;;;;;;;26.90;46.90;;;;;;5052829;28;19913;-80
2022/06/06 09:18:37;;;;;;;;;;;26.60;46.70;;;;;;5043165;28;19935;-80
2022/06/06 09:21:21;;;;;;;;;;;26.40;47.00;;;;;;5051749;28;19944;-79
2022/06/06 09:24:19;;;;;;;;;;;26.20;48.00;;;;;;5019134;28;19917;-79
2022/06/06 09:26:54;;;;;;;;;;;26.10;47.40;;;;;;4987713;28;19913;-80
2022/06/06 09:29:22;;;;;;;;;;;26.10;47.20;;;;;;5015685;28;20288;-79
2022/06/06 09:32:06;;;;;;;;;;;26.10;47.30;;;;;;5038640;28;19912;-79
2022/06/06 09:34:51;;;;;;;;;;;26.20;47.20;;;;;;5053180;28;19916;-80
2022/06/06 09:37:17;;;;;;;;;;;26.60;46.00;;;;;;5034091;28;20451;-80
2022/06/06 09:39:56;;;;;;;;;;;27.00;45.80;;;;;;5032237;28;19997;-79
2022/06/06 09:42:21;;;;;;;;;;;27.30;44.90;;;;;;5049772;28;20444;-80
2022/06/06 09:45:00;;;;;;;;;;;27.40;44.40;;;;;;5032669;28;19912;-80
2022/06/06 09:47:26;;;;;;;;;;;27.50;44.60;;;;;;5045262;28;20015;-80
2022/06/06 09:50:10;;;;;;;;;;;27.40;45.10;;;;;;5025777;28;20007;-79
2022/06/06 09:52:35;;;;;;;;;;;27.30;45.40;;;;;;5050275;28;19912;-79
2022/06/06 10:01:03;;;;;;;;;;;26.80;45.20;;;;;;5050331;28;20288;-79
2022/06/06 10:03:31;;;;;;;;;;;26.70;46.20;;;;;;5028093;28;19952;-79
2022/06/06 10:06:20;;;;;;;;;;;26.60;46.30;;;;;;5016966;28;19917;-78
2022/06/06 10:09:13;;;;;;;;;;;26.60;46.60;;;;;;5048090;28;19917;-78
2022/06/06 10:11:39;;;;;;;;;;;26.70;46.30;;;;;;5026719;28;19939;-78
2022/06/06 10:14:05;;;;;;;;;;;26.50;46.90;;;;;;5029138;28;19917;-78
2022/06/06 10:16:43;;;;;;;;;;;26.40;46.40;;;;;;5030632;28;19913;-78
2022/06/06 10:19:27;;;;;;;;;;;26.20;46.60;;;;;;5047529;28;20508;-79
2022/06/06 10:22:02;;;;;;;;;;;26.00;47.70;;;;;;5033449;28;19912;-78
2022/06/06 10:24:46;;;;;;;;;;;26.10;47.20;;;;;;5033669;28;19927;-79
2022/06/06 10:27:21;;;;;;;;;;;26.30;47.70;;;;;;5052012;28;20381;-79
2022/06/06 10:32:33;;;;;;;;;;;26.30;46.70;;;;;;5046572;28;19953;-76
2022/06/06 10:34:59;;;;;;;;;;;26.30;47.30;;;;;;5028418;28;20007;-76
2022/06/06 10:37:44;;;;;;;;;;;26.20;47.00;;;;;;5029455;28;19916;-76
2022/06/06 10:40:19;;;;;;;;;;;26.30;46.60;;;;;;5029940;28;19913;-76
2022/06/06 10:43:02;;;;;;;;;;;26.30;46.20;;;;;;5046402;28;19920;-77
2022/06/06 10:45:57;;;;;;;;;;;26.40;45.30;;;;;;5047141;28;20323;-77
2022/06/06 10:48:38;;;;;;;;;;;26.30;45.80;;;;;;5029634;28;19913;-77
2022/06/06 10:54:02;;;;;;;;;;;26.30;46.10;;;;;;5047401;28;19967;-77
2022/06/06 10:56:40;;;;;;;;;;;26.30;46.10;;;;;;5045750;28;19963;-77
2022/06/06 10:59:15;;;;;;;;;;;26.40;46.20;;;;;;5028009;28;19912;-77
2022/06/06 11:01:59;;;;;;;;;;;26.30;46.20;;;;;;5030192;28;19913;-77
2022/06/06 11:04:30;;;;;;;;;;;26.20;46.20;;;;;;5047687;28;19935;-77
2022/06/06 11:07:02;;;;;;;;;;;26.30;46.10;;;;;;5032960;28;20192;-78
2022/06/06 11:09:30;;;;;;;;;;;26.30;45.80;;;;;;5049583;28;19909;-78
2022/06/06 11:12:10;;;;;;;;;;;26.30;45.60;;;;;;5041973;28;20511;-77
2022/06/06 11:14:39;;;;;;;;;;;26.40;45.50;;;;;;5042255;28;20380;-77
2022/06/06 11:17:14;;;;;;;;;;;26.30;45.70;;;;;;5050338;28;19909;-77
2022/06/06 11:19:42;;;;;;;;;;;26.20;46.00;;;;;;5044851;28;19969;-77
2022/06/06 11:22:13;;;;;;;;;;;26.00;46.10;;;;;;5043537;28;19970;-77
2022/06/06 11:24:51;;;;;;;;;;;26.00;46.20;;;;;;5039227;28;20325;-77
2022/06/06 11:27:19;;;;;;;;;;;26.00;46.50;;;;;;5043462;28;19917;-77
2022/06/06 11:29:44;;;;;;;;;;;25.90;46.70;;;;;;5045269;28;19919;-78
2022/06/06 11:32:10;;;;;;;;;;;25.80;46.60;;;;;;5045415;28;19991;-77
2022/06/06 11:35:01;;;;;;;;;;;25.70;46.50;;;;;;5037017;28;19913;-77
2022/06/06 11:37:49;;;;;;;;;;;25.70;46.50;;;;;;5046707;28;19909;-77
2022/06/06 11:40:36;;;;;;;;;;;25.60;47.00;;;;;;5047421;28;19913;-78
2022/06/06 11:43:20;;;;;;;;;;;25.50;47.20;;;;;;5022797;28;20290;-77
2022/06/06 11:45:53;;;;;;;;;;;25.40;47.10;;;;;;5042853;28;20023;-77
2022/06/06 11:48:39;;;;;;;;;;;25.40;47.20;;;;;;5042113;28;20373;-77
2022/06/06 11:51:24;;;;;;;;;;;25.30;47.40;;;;;;5042824;28;19913;-77
2022/06/06 11:54:08;;;;;;;;;;;25.20;47.10;;;;;;5051581;28;20007;-77
2022/06/06 11:56:39;;;;;;;;;;;25.30;46.70;;;;;;5040358;28;19917;-77
2022/06/06 11:59:23;;;;;;;;;;;25.20;47.00;;;;;;5042271;28;20352;-77
2022/06/06 12:01:49;;;;;;;;;;;25.20;47.30;;;;;;5019020;28;20372;-77
2022/06/06 12:04:50;;;;;;;;;;;25.20;47.10;;;;;;5029667;28;19963;-77
2022/06/06 12:07:28;;;;;;;;;;;25.20;47.00;;;;;;4987546;28;19913;-77
2022/06/06 12:10:02;;;;;;;;;;;25.10;46.80;;;;;;5024663;28;19909;-77
2022/06/06 12:12:57;;;;;;;;;;;25.00;47.00;;;;;;5042138;28;20343;-77
2022/06/06 12:15:41;;;;;;;;;;;25.00;47.30;;;;;;5015637;28;20328;-77
2022/06/06 12:18:07;;;;;;;;;;;24.90;47.50;;;;;;5027830;28;20015;-77
2022/06/06 12:20:50;;;;;;;;;;;24.90;47.50;;;;;;5036062;28;20000;-77
2022/06/06 12:23:17;;;;;;;;;;;24.80;47.40;;;;;;5053041;28;19917;-77
2022/06/06 12:25:54;;;;;;;;;;;24.80;47.30;;;;;;5053052;28;19920;-77
2022/06/06 12:28:31;;;;;;;;;;;24.80;48.00;;;;;;5035062;28;19956;-77
2022/06/06 12:31:09;;;;;;;;;;;24.80;47.10;;;;;;5049666;28;20408;-77
2022/06/06 12:33:35;;;;;;;;;;;24.80;47.30;;;;;;5048942;28;19908;-77
2022/06/06 12:36:03;;;;;;;;;;;24.80;47.20;;;;;;5052914;28;20380;-77
2022/06/06 12:38:37;;;;;;;;;;;24.80;47.40;;;;;;5036568;28;20437;-77
2022/06/06 12:41:02;;;;;;;;;;;24.80;47.00;;;;;;5033027;28;19956;-77
2022/06/06 12:43:30;;;;;;;;;;;24.70;46.80;;;;;;5029449;28;19952;-77
2022/06/06 12:46:14;;;;;;;;;;;24.80;46.90;;;;;;5028490;28;19917;-77
2022/06/06 12:48:49;;;;;;;;;;;24.90;47.20;;;;;;5028923;28;20347;-77
2022/06/06 12:51:30;;;;;;;;;;;24.80;47.20;;;;;;5041561;28;19912;-77
2022/06/06 12:54:05;;;;;;;;;;;24.90;47.30;;;;;;5024509;28;19920;-77
2022/06/06 12:56:37;;;;;;;;;;;24.80;47.30;;;;;;5036038;28;20320;-77
2022/06/06 12:59:13;;;;;;;;;;;24.80;47.30;;;;;;5016614;28;19927;-76
2022/06/06 13:01:51;;;;;;;;;;;24.80;47.90;;;;;;5015094;28;19909;-76
2022/06/06 13:04:19;;;;;;;;;;;24.70;47.30;;;;;;5032373;28;20296;-77
2022/06/06 13:06:54;;;;;;;;;;;24.80;47.50;;;;;;5014777;28;19996;-77
2022/06/06 13:09:26;;;;;;;;;;;24.80;47.20;;;;;;5032048;28;19932;-78
2022/06/06 13:12:18;;;;;;;;;;;24.90;47.30;;;;;;5047635;28;19971;-78
2022/06/06 13:15:04;;;;;;;;;;;24.90;47.30;;;;;;5016753;28;19970;-78
2022/06/06 13:17:42;;;;;;;;;;;24.90;47.10;;;;;;5051074;28;20368;-78
2022/06/06 13:20:23;;;;;;;;;;;24.90;47.30;;;;;;5041627;28;20418;-78
2022/06/06 13:23:04;;;;;;;;;;;24.80;46.90;;;;;;5021121;28;19975;-77
2022/06/06 13:25:41;;;;;;;;;;;24.70;47.10;;;;;;5033230;28;20033;-78
2022/06/06 13:28:11;;;;;;;;;;;24.70;47.40;;;;;;5050652;28;19916;-78
2022/06/06 13:30:48;;;;;;;;;;;24.70;47.30;;;;;;5039642;28;19967;-78
2022/06/06 13:33:28;;;;;;;;;;;24.80;47.30;;;;;;5042220;28;20261;-78
2022/06/06 13:35:56;;;;;;;;;;;24.80;47.30;;;;;;5036907;28;19917;-77
2022/06/06 13:38:25;;;;;;;;;;;24.80;47.10;;;;;;5043085;28;19916;-78
2022/06/06 13:41:17;;;;;;;;;;;24.80;47.10;;;;;;5014654;28;20392;-79
2022/06/06 13:43:53;;;;;;;;;;;24.70;47.10;;;;;;5030410;28;19909;-79
2022/06/06 13:46:22;;;;;;;;;;;24.70;47.10;;;;;;5041484;28;19913;-79
2022/06/06 13:49:14;;;;;;;;;;;24.70;47.30;;;;;;5039839;28;20357;-79
2022/06/06 13:51:55;;;;;;;;;;;24.70;47.20;;;;;;5009778;28;20288;-79
2022/06/06 13:54:28;;;;;;;;;;;24.80;47.40;;;;;;5052308;28;20376;-80
2022/06/06 13:57:03;;;;;;;;;;;24.70;48.20;;;;;;5035077;28;19996;-79
2022/06/06 13:59:47;;;;;;;;;;;24.70;48.90;;;;;;5031764;28;19945;-79
2022/06/06 14:02:31;;;;;;;;;;;24.60;49.20;;;;;;5032326;28;19913;-79
2022/06/06 14:05:15;;;;;;;;;;;24.70;49.40;;;;;;5052254;28;20381;-79
2022/06/06 14:08:07;;;;;;;;;;;24.70;49.30;;;;;;5019251;28;19917;-79
2022/06/06 14:10:53;;;;;;;;;;;24.70;49.30;;;;;;5033983;28;19909;-78
2022/06/06 14:13:22;;;;;;;;;;;24.70;49.30;;;;;;5025479;28;20287;-78
2022/06/06 14:15:48;;;;;;;;;;;24.70;49.30;;;;;;5034434;28;19915;-78
2022/06/06 14:18:27;;;;;;;;;;;24.70;49.30;;;;;;5052166;28;19908;-78
2022/06/06 14:20:56;;;;;;;;;;;24.60;49.40;;;;;;5048678;28;19909;-78
2022/06/06 14:23:24;;;;;;;;;;;24.60;49.60;;;;;;5049213;28;20155;-77
2022/06/06 14:25:57;;;;;;;;;;;24.50;49.60;;;;;;5048383;28;19960;-77
2022/06/06 14:28:25;;;;;;;;;;;24.50;49.60;;;;;;5051535;28;20019;-77
2022/06/06 14:30:50;;;;;;;;;;;24.60;49.80;;;;;;5048260;28;19964;-78
2022/06/06 14:33:24;;;;;;;;;;;24.60;49.70;;;;;;5051232;28;19945;-78
2022/06/06 14:35:50;;;;;;;;;;;24.60;49.80;;;;;;5049046;28;20012;-77
2022/06/06 14:38:19;;;;;;;;;;;24.60;49.50;;;;;;5026179;28;20016;-77
2022/06/06 14:40:47;;;;;;;;;;;24.60;48.70;;;;;;5050745;28;20289;-77
2022/06/06 14:43:13;;;;;;;;;;;24.70;48.20;;;;;;5035836;28;19913;-77
2022/06/06 14:45:40;;;;;;;;;;;24.70;47.50;;;;;;5042310;28;20381;-77
2022/06/06 14:48:05;;;;;;;;;;;24.70;47.50;;;;;;5031001;28;19909;-78
2022/06/06 14:50:50;;;;;;;;;;;24.70;47.90;;;;;;5027329;28;19909;-77
2022/06/06 14:53:25;;;;;;;;;;;24.70;47.70;;;;;;5029961;28;20010;-77
2022/06/06 14:55:53;;;;;;;;;;;24.60;48.40;;;;;;5047155;28;20127;-77
2022/06/06 14:58:22;;;;;;;;;;;24.70;48.40;;;;;;5052119;28;20291;-78
2022/06/06 15:00:53;;;;;;;;;;;24.70;48.40;;;;;;5048939;28;19935;-78
2022/06/06 15:03:19;;;;;;;;;;;24.60;47.90;;;;;;5030770;28;19909;-78
2022/06/06 15:05:45;;;;;;;;;;;24.70;48.00;;;;;;5028551;28;19949;-78
2022/06/06 15:08:16;;;;;;;;;;;24.70;48.40;;;;;;5030479;28;20049;-78
2022/06/06 15:10:49;;;;;;;;;;;24.60;47.90;;;;;;5037966;28;19917;-76
2022/06/06 15:13:16;;;;;;;;;;;24.60;47.30;;;;;;5042908;28;19911;-77
2022/06/06 15:15:43;;;;;;;;;;;24.60;47.40;;;;;;5043088;28;20365;-77
2022/06/06 15:18:16;;;;;;;;;;;24.60;47.30;;;;;;5030387;28;19909;-77
2022/06/06 15:20:48;;;;;;;;;;;24.50;47.20;;;;;;5025761;28;19996;-77